createdAt,value
2023-05-21T00:02:35.864Z,100214.53
2023-05-21T00:07:37.668Z,100206.66
2023-05-21T00:12:39.381Z,100194.91
2023-05-21T00:17:41.128Z,100191.25
2023-05-21T00:22:43.844Z,100187.50
2023-05-21T00:27:45.574Z,100186.94
2023-05-21T00:32:47.589Z,100183.63
2023-05-21T00:37:50.151Z,100171.91
2023-05-21T00:42:53.638Z,100166.41
2023-05-21T00:47:55.897Z,100168.34
2023-05-21T00:52:59.745Z,100172.03
2023-05-21T00:58:01.496Z,100163.28
2023-05-21T01:03:04.582Z,100165.22
2023-05-21T01:08:07.670Z,100161.03
2023-05-21T01:13:09.740Z,100155.28
2023-05-21T01:18:14.355Z,100157.72
2023-05-21T01:23:20.093Z,100149.56
2023-05-21T01:28:22.199Z,100148.16
2023-05-21T01:33:32.235Z,100141.19
2023-05-21T01:38:41.335Z,100142.16
2023-05-21T01:43:45.646Z,100123.03
2023-05-21T01:48:49.042Z,100126.84
2023-05-21T01:53:50.803Z,100119.56
2023-05-21T01:58:52.757Z,100116.16
2023-05-21T02:03:54.519Z,100107.66
2023-05-21T02:08:56.601Z,100105.19
2023-05-21T02:13:58.815Z,100112.28
2023-05-21T02:19:00.709Z,100105.69
2023-05-21T02:24:02.600Z,100114.09
2023-05-21T02:29:04.458Z,100118.47
2023-05-21T02:34:08.141Z,100112.50
2023-05-21T02:39:09.933Z,100102.53
2023-05-21T02:44:11.919Z,100110.47
2023-05-21T02:49:13.714Z,100103.22
2023-05-21T02:54:17.748Z,100099.56
2023-05-21T02:59:19.579Z,100096.78
2023-05-21T03:04:21.856Z,100096.97
2023-05-21T03:09:24.315Z,100097.22
2023-05-21T03:14:26.097Z,100103.84
2023-05-21T03:19:30.537Z,100102.63
2023-05-21T03:24:33.151Z,100097.41
2023-05-21T03:29:37.638Z,100092.00
2023-05-21T03:34:41.401Z,100101.13
2023-05-21T03:39:43.534Z,100097.47
2023-05-21T03:44:45.965Z,100109.00
2023-05-21T03:50:05.778Z,100101.56
2023-05-21T03:55:08.209Z,100099.03
2023-05-21T04:00:10.893Z,100105.78
2023-05-21T04:05:18.733Z,100103.75
2023-05-21T04:10:20.736Z,100101.28
2023-05-21T04:15:24.661Z,100106.66
2023-05-21T04:20:26.650Z,100100.09
2023-05-21T04:25:28.601Z,100102.78
2023-05-21T04:30:30.577Z,100101.69
2023-05-21T04:35:32.390Z,100106.34
2023-05-21T04:40:36.702Z,100104.88
2023-05-21T04:45:39.105Z,100113.25
2023-05-21T04:50:41.613Z,100111.25
2023-05-21T04:55:43.457Z,100116.88
2023-05-21T05:00:51.626Z,100107.44
2023-05-21T05:05:53.859Z,100115.28
2023-05-21T05:10:55.871Z,100111.47
2023-05-21T05:15:57.598Z,100114.25
2023-05-21T05:20:59.659Z,100109.22
2023-05-21T05:26:01.735Z,100099.09
2023-05-21T05:31:03.728Z,100091.44
2023-05-21T05:36:07.461Z,100091.25
2023-05-21T05:41:09.598Z,100088.78
2023-05-21T05:46:11.425Z,100086.31
2023-05-21T05:51:15.474Z,100082.75
2023-05-21T05:56:17.561Z,100087.88
2023-05-21T06:01:20.363Z,100079.09
2023-05-21T06:06:22.356Z,100080.22
2023-05-21T06:11:24.174Z,100084.34
2023-05-21T06:16:25.964Z,100089.38
2023-05-21T06:21:28.216Z,100079.94
2023-05-21T06:26:30.859Z,100073.56
2023-05-21T06:31:34.005Z,100076.09
2023-05-21T06:36:35.846Z,100072.66
2023-05-21T06:41:37.533Z,100084.28
2023-05-21T06:46:58.825Z,100084.63
2023-05-21T06:52:00.549Z,100083.25
2023-05-21T06:57:02.510Z,100085.66
2023-05-21T07:02:06.611Z,100086.84
2023-05-21T07:07:08.717Z,100082.97
2023-05-21T07:12:10.926Z,100082.47
2023-05-21T07:17:12.793Z,100086.28
2023-05-21T07:22:14.812Z,100085.09
2023-05-21T07:27:25.344Z,100083.59
2023-05-21T07:32:29.458Z,100079.66
2023-05-21T07:37:31.849Z,100079.84
2023-05-21T07:42:35.739Z,100079.53
2023-05-21T07:47:38.555Z,100078.81
2023-05-21T07:52:40.653Z,100080.91
2023-05-21T07:57:42.971Z,100083.41
2023-05-21T08:02:50.506Z,100077.38
2023-05-21T08:07:52.768Z,100077.03
2023-05-21T08:12:55.457Z,100088.84
2023-05-21T08:17:57.859Z,100075.84
2023-05-21T08:23:00.918Z,100084.63
2023-05-21T08:28:07.201Z,100088.81
2023-05-21T08:33:10.005Z,100092.88
2023-05-21T08:38:11.906Z,100085.59
2023-05-21T08:43:21.194Z,100078.00
2023-05-21T08:48:24.514Z,100086.78
2023-05-21T08:53:29.619Z,100089.44
2023-05-21T08:58:33.787Z,100088.69
2023-05-21T09:03:39.748Z,100076.63
2023-05-21T09:08:48.072Z,100079.47
2023-05-21T09:13:56.331Z,100072.31
2023-05-21T09:19:04.965Z,100078.84
2023-05-21T09:24:11.148Z,100080.91
2023-05-21T09:29:13.702Z,100080.31
2023-05-21T09:34:15.945Z,100072.63
2023-05-21T09:39:30.036Z,100075.19
2023-05-21T09:44:35.562Z,100079.63
2023-05-21T09:49:38.057Z,100066.16
2023-05-21T09:54:40.110Z,100073.53
2023-05-21T09:59:43.139Z,100067.25
2023-05-21T10:04:49.214Z,100064.06
2023-05-21T10:09:53.614Z,100061.41
2023-05-21T10:15:01.320Z,100056.09
2023-05-21T10:20:04.943Z,100057.16
2023-05-21T10:25:10.108Z,100052.72
2023-05-21T10:30:11.809Z,100064.69
2023-05-21T10:35:16.340Z,100058.78
2023-05-21T10:40:18.255Z,100057.00
2023-05-21T10:45:46.606Z,100047.16
2023-05-21T10:51:03.757Z,100042.28
2023-05-21T10:56:33.462Z,100040.69
2023-05-21T11:01:38.014Z,100039.63
2023-05-21T11:06:39.852Z,100040.50
2023-05-21T11:11:48.380Z,100039.34
2023-05-21T11:16:50.285Z,100024.88
2023-05-21T11:21:52.224Z,100035.84
2023-05-21T11:26:58.599Z,100023.38
2023-05-21T11:32:05.514Z,100017.28
2023-05-21T11:37:29.280Z,100019.91
2023-05-21T11:42:35.521Z,100016.28
2023-05-21T11:47:37.361Z,100014.81
2023-05-21T11:52:40.620Z,100019.00
2023-05-21T11:57:48.218Z,100004.59
2023-05-21T12:02:53.812Z,100009.72
2023-05-21T12:07:56.701Z,100020.81
2023-05-21T12:12:58.745Z,100019.41
2023-05-21T12:18:01.341Z,100015.66
2023-05-21T12:23:03.181Z,100010.38
2023-05-21T12:28:05.443Z,100012.34
2023-05-21T12:33:07.283Z,100016.25
2023-05-21T12:38:09.792Z,100017.56
2023-05-21T12:43:11.739Z,100025.09
2023-05-21T12:48:13.512Z,100011.97
2023-05-21T12:53:15.318Z,99996.53
2023-05-21T12:58:22.153Z,100002.47
2023-05-21T13:03:23.865Z,100003.94
2023-05-21T13:08:25.868Z,99999.22
2023-05-21T13:13:27.558Z,99993.91
2023-05-21T13:18:29.445Z,99977.59
2023-05-21T13:23:31.227Z,99977.91
2023-05-21T13:28:32.948Z,99969.69
2023-05-21T13:33:34.795Z,99965.13
2023-05-21T13:38:36.658Z,99964.69
2023-05-21T13:43:42.012Z,99956.34
2023-05-21T13:48:44.137Z,99969.34
2023-05-21T13:53:45.886Z,99958.31
2023-05-21T13:58:47.746Z,99955.63
2023-05-21T14:03:49.489Z,99962.09
2023-05-21T14:08:51.332Z,99962.47
2023-05-21T14:13:53.618Z,99962.75
2023-05-21T14:18:57.006Z,99965.38
2023-05-21T14:23:58.837Z,99951.94
2023-05-21T14:29:00.640Z,99951.63
2023-05-21T14:34:06.956Z,99955.63
2023-05-21T14:39:08.670Z,99957.78
2023-05-21T14:44:10.426Z,99948.41
2023-05-21T14:49:12.789Z,99950.91
2023-05-21T14:54:14.789Z,99945.03
2023-05-21T14:59:16.881Z,99959.69
2023-05-21T15:04:19.014Z,99955.84
2023-05-21T15:09:20.965Z,99958.44
2023-05-21T15:14:22.699Z,99956.78
2023-05-21T15:19:24.512Z,99953.03
2023-05-21T15:24:26.290Z,99952.38
2023-05-21T15:29:28.204Z,99949.84
2023-05-21T15:34:29.919Z,99955.44
2023-05-21T15:39:31.774Z,99941.25
2023-05-21T15:44:33.670Z,99949.00
2023-05-21T15:49:35.610Z,99938.94
2023-05-21T15:54:37.265Z,99938.69
2023-05-21T15:59:38.962Z,99934.19
2023-05-21T16:04:40.675Z,99930.72
2023-05-21T16:09:42.380Z,99924.84
2023-05-21T16:14:44.113Z,99925.47
2023-05-21T16:19:45.854Z,99917.56
2023-05-21T16:24:48.252Z,99912.97
2023-05-21T16:29:50.018Z,99914.69
2023-05-21T16:34:51.695Z,99910.19
2023-05-21T16:39:53.412Z,99924.19
2023-05-21T16:44:55.071Z,99915.91
2023-05-21T16:49:56.831Z,99921.75
2023-05-21T16:54:58.564Z,99921.50
2023-05-21T17:00:01.861Z,99919.97
2023-05-21T17:05:03.812Z,99930.44
2023-05-21T17:10:06.377Z,99921.97
2023-05-21T17:15:08.507Z,99922.66
2023-05-21T17:20:10.898Z,99911.56
2023-05-21T17:25:12.624Z,99915.69
2023-05-21T17:30:14.360Z,99931.63
2023-05-21T17:35:16.033Z,99926.81
2023-05-21T17:40:20.305Z,99927.66
2023-05-21T17:45:22.031Z,99915.91
2023-05-21T17:50:23.764Z,99920.25
2023-05-21T17:55:25.657Z,99920.75
2023-05-21T18:00:27.317Z,99924.78
2023-05-21T18:05:29.035Z,99928.69
2023-05-21T18:10:30.784Z,99931.69
2023-05-21T18:15:33.212Z,99935.00
2023-05-21T18:20:35.286Z,99935.91
2023-05-21T18:25:37.761Z,99941.59
2023-05-21T18:30:39.614Z,99949.31
2023-05-21T18:35:43.260Z,99943.50
2023-05-21T18:40:45.882Z,99949.81
2023-05-21T18:45:47.616Z,99949.94
2023-05-21T18:50:49.453Z,99961.41
2023-05-21T18:55:51.350Z,99956.53
2023-05-21T19:00:53.071Z,99959.00
2023-05-21T19:05:55.060Z,99952.28
2023-05-21T19:10:56.779Z,99953.53
2023-05-21T19:15:58.693Z,99954.03
2023-05-21T19:21:00.491Z,99961.19
2023-05-21T19:26:02.805Z,99967.75
2023-05-21T19:31:04.542Z,99964.09
2023-05-21T19:36:06.660Z,99964.03
2023-05-21T19:41:08.317Z,99966.41
2023-05-21T19:46:10.240Z,99974.94
2023-05-21T19:51:12.147Z,99975.22
2023-05-21T19:56:14.192Z,99970.00
2023-05-21T20:01:16.697Z,99963.06
2023-05-21T20:06:20.570Z,99971.75
2023-05-21T20:11:22.625Z,99974.16
2023-05-21T20:16:24.732Z,99973.50
2023-05-21T20:21:26.600Z,99966.25
2023-05-21T20:26:28.300Z,99965.69
2023-05-21T20:31:30.393Z,99964.16
2023-05-21T20:36:33.909Z,99961.06
2023-05-21T20:41:37.700Z,99969.31
2023-05-21T20:46:39.629Z,99967.91
2023-05-21T20:51:41.472Z,99967.28
2023-05-21T20:56:45.049Z,99973.03
2023-05-21T21:01:46.933Z,99977.06
2023-05-21T21:06:50.252Z,99978.47
2023-05-21T21:11:51.961Z,99976.56
2023-05-21T21:16:53.698Z,99973.78
2023-05-21T21:21:55.881Z,99970.13
2023-05-21T21:26:57.803Z,99973.41
2023-05-21T21:31:59.472Z,99971.97
2023-05-21T21:37:01.174Z,99974.84
2023-05-21T21:42:03.010Z,99977.75
2023-05-21T21:47:05.358Z,99977.28
2023-05-21T21:52:07.172Z,99977.00
2023-05-21T21:57:08.997Z,99975.66
2023-05-21T22:02:10.812Z,99968.81
2023-05-21T22:07:18.079Z,99973.78
2023-05-21T22:12:19.844Z,99967.13
2023-05-21T22:17:21.650Z,99970.34
2023-05-21T22:22:24.327Z,99970.53
2023-05-21T22:27:26.143Z,99970.47
2023-05-21T22:32:27.944Z,99971.31
2023-05-21T22:37:29.984Z,99968.34
2023-05-21T22:42:32.480Z,99958.09
2023-05-21T22:47:37.087Z,99965.41
2023-05-21T22:52:39.317Z,99967.63
2023-05-21T22:57:41.172Z,99968.75
2023-05-21T23:02:42.941Z,99967.69
2023-05-21T23:07:44.743Z,99969.38
2023-05-21T23:12:46.478Z,99965.81
2023-05-21T23:17:48.382Z,99962.13
2023-05-21T23:22:50.154Z,99963.16
2023-05-21T23:27:51.901Z,99966.56
2023-05-21T23:32:53.679Z,99961.84
2023-05-21T23:37:55.602Z,99959.53
2023-05-21T23:42:57.432Z,99957.78
2023-05-21T23:47:59.177Z,99950.69
2023-05-21T23:53:00.924Z,99959.88
2023-05-21T23:58:04.023Z,99960.06
